sensor_id;sensor_type;location;lat;lon;timestamp;temperature;humidity
16305;DHT22;8261;47.678;-122.174;2022-09-28T00:01:48;25.30;99.90
16305;DHT22;8261;47.678;-122.174;2022-09-28T00:04:19;25.40;99.90
16305;DHT22;8261;47.678;-122.174;2022-09-28T00:06:52;25.50;99.90
16305;DHT22;8261;47.678;-122.174;2022-09-28T00:09:23;25.50;99.90
16305;DHT22;8261;47.678;-122.174;2022-09-28T00:11:53;25.40;99.90
16305;DHT22;8261;47.678;-122.174;2022-09-28T00:14:24;25.40;99.90
16305;DHT22;8261;47.678;-122.174;2022-09-28T00:16:55;25.30;99.90
16305;DHT22;8261;47.678;-122.174;2022-09-28T00:19:26;25.10;99.90
16305;DHT22;8261;47.678;-122.174;2022-09-28T00:21:59;24.80;99.90
16305;DHT22;8261;47.678;-122.174;2022-09-28T00:24:30;24.60;99.90
16305;DHT22;8261;47.678;-122.174;2022-09-28T00:27:01;24.50;99.90
16305;DHT22;8261;47.678;-122.174;2022-09-28T00:29:33;24.60;99.90
16305;DHT22;8261;47.678;-122.174;2022-09-28T00:32:05;24.50;99.90
16305;DHT22;8261;47.678;-122.174;2022-09-28T00:34:37;24.40;99.90
16305;DHT22;8261;47.678;-122.174;2022-09-28T00:37:12;24.40;99.90
16305;DHT22;8261;47.678;-122.174;2022-09-28T00:39:43;24.30;99.90
16305;DHT22;8261;47.678;-122.174;2022-09-28T00:42:16;24.20;99.90
16305;DHT22;8261;47.678;-122.174;2022-09-28T00:44:49;24.10;99.90
16305;DHT22;8261;47.678;-122.174;2022-09-28T00:47:46;24.00;99.90
16305;DHT22;8261;47.678;-122.174;2022-09-28T00:50:23;24.00;99.90
16305;DHT22;8261;47.678;-122.174;2022-09-28T00:53:02;24.00;99.90
16305;DHT22;8261;47.678;-122.174;2022-09-28T00:55:38;23.80;99.90
16305;DHT22;8261;47.678;-122.174;2022-09-28T00:58:14;23.70;99.90
16305;DHT22;8261;47.678;-122.174;2022-09-28T01:00:47;23.70;99.90
16305;DHT22;8261;47.678;-122.174;2022-09-28T01:03:18;23.60;99.90
16305;DHT22;8261;47.678;-122.174;2022-09-28T01:05:51;23.60;99.90
16305;DHT22;8261;47.678;-122.174;2022-09-28T01:08:26;23.50;99.90
16305;DHT22;8261;47.678;-122.174;2022-09-28T01:10:58;23.40;99.90
16305;DHT22;8261;47.678;-122.174;2022-09-28T01:13:31;23.40;99.90
16305;DHT22;8261;47.678;-122.174;2022-09-28T01:16:18;23.40;99.90
16305;DHT22;8261;47.678;-122.174;2022-09-28T01:18:58;23.30;99.90
16305;DHT22;8261;47.678;-122.174;2022-09-28T01:21:38;23.30;99.90
16305;DHT22;8261;47.678;-122.174;2022-09-28T01:24:36;23.20;99.90
16305;DHT22;8261;47.678;-122.174;2022-09-28T01:27:14;23.20;99.90
16305;DHT22;8261;47.678;-122.174;2022-09-28T01:29:54;23.10;99.90
16305;DHT22;8261;47.678;-122.174;2022-09-28T01:32:34;23.00;99.90
16305;DHT22;8261;47.678;-122.174;2022-09-28T01:35:08;22.90;99.90
16305;DHT22;8261;47.678;-122.174;2022-09-28T01:37:45;22.80;99.90
16305;DHT22;8261;47.678;-122.174;2022-09-28T01:40:21;22.70;99.90
16305;DHT22;8261;47.678;-122.174;2022-09-28T01:43:01;22.60;99.90
16305;DHT22;8261;47.678;-122.174;2022-09-28T01:45:37;22.50;99.90
16305;DHT22;8261;47.678;-122.174;2022-09-28T01:48:12;22.50;99.90
16305;DHT22;8261;47.678;-122.174;2022-09-28T01:50:45;22.50;99.90
16305;DHT22;8261;47.678;-122.174;2022-09-28T01:53:21;22.40;99.90
16305;DHT22;8261;47.678;-122.174;2022-09-28T01:55:57;22.20;99.90
16305;DHT22;8261;47.678;-122.174;2022-09-28T01:58:37;22.10;99.90
16305;DHT22;8261;47.678;-122.174;2022-09-28T02:01:14;21.90;99.90
16305;DHT22;8261;47.678;-122.174;2022-09-28T02:03:51;21.80;99.90
16305;DHT22;8261;47.678;-122.174;2022-09-28T02:06:35;21.80;99.90
16305;DHT22;8261;47.678;-122.174;2022-09-28T02:09:10;21.70;99.90
16305;DHT22;8261;47.678;-122.174;2022-09-28T02:11:51;21.70;99.90
16305;DHT22;8261;47.678;-122.174;2022-09-28T02:14:26;21.70;99.90
16305;DHT22;8261;47.678;-122.174;2022-09-28T02:17:00;21.70;99.90
16305;DHT22;8261;47.678;-122.174;2022-09-28T02:19:32;21.60;99.90
16305;DHT22;8261;47.678;-122.174;2022-09-28T02:22:11;21.50;99.90
16305;DHT22;8261;47.678;-122.174;2022-09-28T02:24:54;21.40;99.90
16305;DHT22;8261;47.678;-122.174;2022-09-28T02:27:32;21.40;99.90
16305;DHT22;8261;47.678;-122.174;2022-09-28T02:30:09;21.30;99.90
16305;DHT22;8261;47.678;-122.174;2022-09-28T02:32:44;21.20;99.90
16305;DHT22;8261;47.678;-122.174;2022-09-28T02:35:18;21.20;99.90
16305;DHT22;8261;47.678;-122.174;2022-09-28T02:37:49;21.10;99.90
16305;DHT22;8261;47.678;-122.174;2022-09-28T02:40:22;21.00;99.90
16305;DHT22;8261;47.678;-122.174;2022-09-28T02:43:01;21.00;99.90
16305;DHT22;8261;47.678;-122.174;2022-09-28T02:45:48;20.90;99.90
16305;DHT22;8261;47.678;-122.174;2022-09-28T02:48:33;20.80;99.90
16305;DHT22;8261;47.678;-122.174;2022-09-28T02:51:19;20.70;99.90
16305;DHT22;8261;47.678;-122.174;2022-09-28T02:54:10;20.60;99.90
16305;DHT22;8261;47.678;-122.174;2022-09-28T02:56:56;20.50;99.90
16305;DHT22;8261;47.678;-122.174;2022-09-28T02:59:39;20.40;99.90
16305;DHT22;8261;47.678;-122.174;2022-09-28T03:02:22;20.40;99.90
16305;DHT22;8261;47.678;-122.174;2022-09-28T03:05:10;20.30;99.90
16305;DHT22;8261;47.678;-122.174;2022-09-28T03:07:48;20.20;99.90
16305;DHT22;8261;47.678;-122.174;2022-09-28T03:10:26;20.10;99.90
16305;DHT22;8261;47.678;-122.174;2022-09-28T03:13:03;20.00;99.90
16305;DHT22;8261;47.678;-122.174;2022-09-28T03:15:36;19.90;99.90
16305;DHT22;8261;47.678;-122.174;2022-09-28T03:18:17;19.90;99.90
16305;DHT22;8261;47.678;-122.174;2022-09-28T03:20:49;19.80;99.90
16305;DHT22;8261;47.678;-122.174;2022-09-28T03:23:21;19.60;99.90
16305;DHT22;8261;47.678;-122.174;2022-09-28T03:25:53;19.60;99.90
16305;DHT22;8261;47.678;-122.174;2022-09-28T03:28:23;19.50;99.90
16305;DHT22;8261;47.678;-122.174;2022-09-28T03:30:55;19.40;99.90
16305;DHT22;8261;47.678;-122.174;2022-09-28T03:33:32;19.30;99.90
16305;DHT22;8261;47.678;-122.174;2022-09-28T03:36:04;19.30;99.90
16305;DHT22;8261;47.678;-122.174;2022-09-28T03:38:37;19.30;99.90
16305;DHT22;8261;47.678;-122.174;2022-09-28T03:41:08;19.30;99.90
16305;DHT22;8261;47.678;-122.174;2022-09-28T03:43:39;19.30;99.90
16305;DHT22;8261;47.678;-122.174;2022-09-28T03:46:11;19.20;99.90
16305;DHT22;8261;47.678;-122.174;2022-09-28T03:48:45;19.20;99.90
16305;DHT22;8261;47.678;-122.174;2022-09-28T03:51:16;19.10;99.90
16305;DHT22;8261;47.678;-122.174;2022-09-28T03:53:47;19.10;99.90
16305;DHT22;8261;47.678;-122.174;2022-09-28T03:56:20;19.10;99.90
16305;DHT22;8261;47.678;-122.174;2022-09-28T03:58:51;19.00;99.90
16305;DHT22;8261;47.678;-122.174;2022-09-28T04:01:22;18.80;99.90
16305;DHT22;8261;47.678;-122.174;2022-09-28T04:03:55;18.70;99.90
16305;DHT22;8261;47.678;-122.174;2022-09-28T04:06:26;18.60;99.90
16305;DHT22;8261;47.678;-122.174;2022-09-28T04:08:59;18.60;99.90
16305;DHT22;8261;47.678;-122.174;2022-09-28T04:11:30;18.50;99.90
16305;DHT22;8261;47.678;-122.174;2022-09-28T04:14:21;18.50;99.90
16305;DHT22;8261;47.678;-122.174;2022-09-28T04:16:52;18.40;99.90
16305;DHT22;8261;47.678;-122.174;2022-09-28T04:19:25;18.40;99.90
16305;DHT22;8261;47.678;-122.174;2022-09-28T04:21:56;18.30;99.90
16305;DHT22;8261;47.678;-122.174;2022-09-28T04:24:28;18.20;99.90
16305;DHT22;8261;47.678;-122.174;2022-09-28T04:26:59;18.20;99.90
16305;DHT22;8261;47.678;-122.174;2022-09-28T04:29:43;18.10;99.90
16305;DHT22;8261;47.678;-122.174;2022-09-28T04:32:15;17.90;99.90
16305;DHT22;8261;47.678;-122.174;2022-09-28T04:34:48;17.80;99.90
16305;DHT22;8261;47.678;-122.174;2022-09-28T04:37:19;17.80;99.90
16305;DHT22;8261;47.678;-122.174;2022-09-28T04:39:50;17.70;99.90
16305;DHT22;8261;47.678;-122.174;2022-09-28T04:42:21;17.50;99.90
16305;DHT22;8261;47.678;-122.174;2022-09-28T04:44:53;17.50;99.90
16305;DHT22;8261;47.678;-122.174;2022-09-28T04:47:25;17.40;99.90
16305;DHT22;8261;47.678;-122.174;2022-09-28T04:49:59;17.40;99.90
16305;DHT22;8261;47.678;-122.174;2022-09-28T04:52:30;17.20;99.90
16305;DHT22;8261;47.678;-122.174;2022-09-28T04:55:02;17.10;99.90
16305;DHT22;8261;47.678;-122.174;2022-09-28T04:57:34;17.00;99.90
16305;DHT22;8261;47.678;-122.174;2022-09-28T05:00:08;16.90;99.90
16305;DHT22;8261;47.678;-122.174;2022-09-28T05:02:39;16.60;99.90
16305;DHT22;8261;47.678;-122.174;2022-09-28T05:05:13;16.50;99.90
16305;DHT22;8261;47.678;-122.174;2022-09-28T05:07:44;16.60;99.90
16305;DHT22;8261;47.678;-122.174;2022-09-28T05:10:15;16.50;99.90
16305;DHT22;8261;47.678;-122.174;2022-09-28T05:12:47;16.40;99.90
16305;DHT22;8261;47.678;-122.174;2022-09-28T05:15:20;16.40;99.90
16305;DHT22;8261;47.678;-122.174;2022-09-28T05:17:52;16.40;99.90
16305;DHT22;8261;47.678;-122.174;2022-09-28T05:20:26;16.30;99.90
16305;DHT22;8261;47.678;-122.174;2022-09-28T05:22:57;16.20;99.90
16305;DHT22;8261;47.678;-122.174;2022-09-28T05:25:28;16.10;99.90
16305;DHT22;8261;47.678;-122.174;2022-09-28T05:27:59;16.00;99.90
16305;DHT22;8261;47.678;-122.174;2022-09-28T05:30:31;16.00;99.90
16305;DHT22;8261;47.678;-122.174;2022-09-28T05:33:03;15.90;99.90
16305;DHT22;8261;47.678;-122.174;2022-09-28T05:35:36;15.80;99.90
16305;DHT22;8261;47.678;-122.174;2022-09-28T05:38:08;15.80;99.90
16305;DHT22;8261;47.678;-122.174;2022-09-28T05:40:39;15.80;99.90
16305;DHT22;8261;47.678;-122.174;2022-09-28T05:43:11;15.70;99.90
16305;DHT22;8261;47.678;-122.174;2022-09-28T05:45:43;15.60;99.90
16305;DHT22;8261;47.678;-122.174;2022-09-28T05:48:22;15.70;99.90
16305;DHT22;8261;47.678;-122.174;2022-09-28T05:50:56;15.60;99.90
16305;DHT22;8261;47.678;-122.174;2022-09-28T05:53:27;15.60;99.90
16305;DHT22;8261;47.678;-122.174;2022-09-28T05:55:58;15.60;99.90
16305;DHT22;8261;47.678;-122.174;2022-09-28T05:58:31;15.50;99.90
16305;DHT22;8261;47.678;-122.174;2022-09-28T06:01:02;15.50;99.90
16305;DHT22;8261;47.678;-122.174;2022-09-28T06:03:34;15.40;99.90
16305;DHT22;8261;47.678;-122.174;2022-09-28T06:06:12;15.30;99.90
16305;DHT22;8261;47.678;-122.174;2022-09-28T06:08:43;15.30;99.90
16305;DHT22;8261;47.678;-122.174;2022-09-28T06:11:17;15.30;99.90
16305;DHT22;8261;47.678;-122.174;2022-09-28T06:13:53;15.20;99.90
16305;DHT22;8261;47.678;-122.174;2022-09-28T06:16:24;15.10;99.90
16305;DHT22;8261;47.678;-122.174;2022-09-28T06:18:55;15.00;99.90
16305;DHT22;8261;47.678;-122.174;2022-09-28T06:21:29;15.00;99.90
16305;DHT22;8261;47.678;-122.174;2022-09-28T06:24:01;14.90;99.90
16305;DHT22;8261;47.678;-122.174;2022-09-28T06:26:33;14.90;99.90
16305;DHT22;8261;47.678;-122.174;2022-09-28T06:29:05;14.90;99.90
16305;DHT22;8261;47.678;-122.174;2022-09-28T06:31:36;14.80;99.90
16305;DHT22;8261;47.678;-122.174;2022-09-28T06:34:08;14.80;99.90
16305;DHT22;8261;47.678;-122.174;2022-09-28T06:36:42;14.80;99.90
16305;DHT22;8261;47.678;-122.174;2022-09-28T06:39:14;14.70;99.90
16305;DHT22;8261;47.678;-122.174;2022-09-28T06:41:45;14.70;99.90
16305;DHT22;8261;47.678;-122.174;2022-09-28T06:44:16;14.60;99.90
16305;DHT22;8261;47.678;-122.174;2022-09-28T06:46:48;14.50;99.90
16305;DHT22;8261;47.678;-122.174;2022-09-28T06:49:19;14.40;99.90
16305;DHT22;8261;47.678;-122.174;2022-09-28T06:51:52;14.40;99.90
16305;DHT22;8261;47.678;-122.174;2022-09-28T06:54:23;14.40;99.90
16305;DHT22;8261;47.678;-122.174;2022-09-28T06:56:54;14.40;99.90
16305;DHT22;8261;47.678;-122.174;2022-09-28T06:59:25;14.40;99.90
16305;DHT22;8261;47.678;-122.174;2022-09-28T07:01:57;14.30;99.90
16305;DHT22;8261;47.678;-122.174;2022-09-28T07:04:28;14.30;99.90
16305;DHT22;8261;47.678;-122.174;2022-09-28T07:07:03;14.20;99.90
16305;DHT22;8261;47.678;-122.174;2022-09-28T07:09:34;14.20;99.90
16305;DHT22;8261;47.678;-122.174;2022-09-28T07:12:13;14.20;99.90
16305;DHT22;8261;47.678;-122.174;2022-09-28T07:14:44;14.20;99.90
16305;DHT22;8261;47.678;-122.174;2022-09-28T07:17:20;14.20;99.90
16305;DHT22;8261;47.678;-122.174;2022-09-28T07:19:54;14.20;99.90
16305;DHT22;8261;47.678;-122.174;2022-09-28T07:22:42;14.10;99.90
16305;DHT22;8261;47.678;-122.174;2022-09-28T07:25:18;14.20;99.90
16305;DHT22;8261;47.678;-122.174;2022-09-28T07:27:50;14.10;99.90
16305;DHT22;8261;47.678;-122.174;2022-09-28T07:30:22;14.10;99.90
16305;DHT22;8261;47.678;-122.174;2022-09-28T07:32:55;14.10;99.90
16305;DHT22;8261;47.678;-122.174;2022-09-28T07:35:26;14.10;99.90
16305;DHT22;8261;47.678;-122.174;2022-09-28T07:38:01;14.10;99.90
16305;DHT22;8261;47.678;-122.174;2022-09-28T07:40:34;14.10;99.90
16305;DHT22;8261;47.678;-122.174;2022-09-28T07:43:33;14.10;99.90
16305;DHT22;8261;47.678;-122.174;2022-09-28T07:46:07;14.10;99.90
16305;DHT22;8261;47.678;-122.174;2022-09-28T07:48:40;14.10;99.90
16305;DHT22;8261;47.678;-122.174;2022-09-28T07:51:13;14.10;99.90
16305;DHT22;8261;47.678;-122.174;2022-09-28T07:53:49;14.10;99.90
16305;DHT22;8261;47.678;-122.174;2022-09-28T07:56:21;14.10;99.90
16305;DHT22;8261;47.678;-122.174;2022-09-28T07:58:52;14.00;99.90
16305;DHT22;8261;47.678;-122.174;2022-09-28T08:01:24;14.10;99.90
16305;DHT22;8261;47.678;-122.174;2022-09-28T08:03:58;14.10;99.90
16305;DHT22;8261;47.678;-122.174;2022-09-28T08:06:30;14.00;99.90
16305;DHT22;8261;47.678;-122.174;2022-09-28T08:09:03;14.00;99.90
16305;DHT22;8261;47.678;-122.174;2022-09-28T08:11:34;14.00;99.90
16305;DHT22;8261;47.678;-122.174;2022-09-28T08:14:06;14.00;99.90
16305;DHT22;8261;47.678;-122.174;2022-09-28T08:16:38;14.00;99.90
16305;DHT22;8261;47.678;-122.174;2022-09-28T08:19:17;14.10;99.90
16305;DHT22;8261;47.678;-122.174;2022-09-28T08:21:48;14.00;99.90
16305;DHT22;8261;47.678;-122.174;2022-09-28T08:24:20;14.00;99.90
16305;DHT22;8261;47.678;-122.174;2022-09-28T08:26:52;13.90;99.90
16305;DHT22;8261;47.678;-122.174;2022-09-28T08:29:24;13.90;99.90
16305;DHT22;8261;47.678;-122.174;2022-09-28T08:31:57;14.00;99.90
16305;DHT22;8261;47.678;-122.174;2022-09-28T08:34:28;14.00;99.90
16305;DHT22;8261;47.678;-122.174;2022-09-28T08:37:00;13.90;99.90
16305;DHT22;8261;47.678;-122.174;2022-09-28T08:39:33;13.80;99.90
16305;DHT22;8261;47.678;-122.174;2022-09-28T08:42:15;13.80;99.90
16305;DHT22;8261;47.678;-122.174;2022-09-28T08:44:52;13.80;99.90
16305;DHT22;8261;47.678;-122.174;2022-09-28T08:47:28;13.80;99.90
16305;DHT22;8261;47.678;-122.174;2022-09-28T08:50:22;13.70;99.90
16305;DHT22;8261;47.678;-122.174;2022-09-28T08:52:57;13.70;99.90
16305;DHT22;8261;47.678;-122.174;2022-09-28T08:55:36;13.70;99.90
16305;DHT22;8261;47.678;-122.174;2022-09-28T08:58:12;13.70;99.90
16305;DHT22;8261;47.678;-122.174;2022-09-28T09:00:46;13.70;99.90
16305;DHT22;8261;47.678;-122.174;2022-09-28T09:03:19;13.70;99.90
16305;DHT22;8261;47.678;-122.174;2022-09-28T09:05:59;13.80;99.90
16305;DHT22;8261;47.678;-122.174;2022-09-28T09:08:46;13.80;99.90
16305;DHT22;8261;47.678;-122.174;2022-09-28T09:11:41;13.80;99.90
16305;DHT22;8261;47.678;-122.174;2022-09-28T09:14:52;13.70;99.90
16305;DHT22;8261;47.678;-122.174;2022-09-28T09:17:35;13.80;99.90
16305;DHT22;8261;47.678;-122.174;2022-09-28T09:20:18;13.70;99.90
16305;DHT22;8261;47.678;-122.174;2022-09-28T09:22:58;13.70;99.90
16305;DHT22;8261;47.678;-122.174;2022-09-28T09:25:38;13.70;99.90
16305;DHT22;8261;47.678;-122.174;2022-09-28T09:28:39;13.70;99.90
16305;DHT22;8261;47.678;-122.174;2022-09-28T09:31:21;13.70;99.90
16305;DHT22;8261;47.678;-122.174;2022-09-28T09:37:01;13.60;99.90
16305;DHT22;8261;47.678;-122.174;2022-09-28T09:39:43;13.60;99.90
16305;DHT22;8261;47.678;-122.174;2022-09-28T09:42:29;13.60;99.90
16305;DHT22;8261;47.678;-122.174;2022-09-28T09:45:18;13.60;99.90
16305;DHT22;8261;47.678;-122.174;2022-09-28T09:47:59;13.60;99.90
16305;DHT22;8261;47.678;-122.174;2022-09-28T09:50:35;13.50;99.90
16305;DHT22;8261;47.678;-122.174;2022-09-28T09:53:16;13.50;99.90
16305;DHT22;8261;47.678;-122.174;2022-09-28T09:55:51;13.50;99.90
16305;DHT22;8261;47.678;-122.174;2022-09-28T09:58:27;13.50;99.90
16305;DHT22;8261;47.678;-122.174;2022-09-28T10:01:06;13.50;99.90
16305;DHT22;8261;47.678;-122.174;2022-09-28T10:03:41;13.50;99.90
16305;DHT22;8261;47.678;-122.174;2022-09-28T10:06:15;13.40;99.90
16305;DHT22;8261;47.678;-122.174;2022-09-28T10:08:49;13.40;99.90
16305;DHT22;8261;47.678;-122.174;2022-09-28T10:11:26;13.40;99.90
16305;DHT22;8261;47.678;-122.174;2022-09-28T10:13:58;13.40;99.90
16305;DHT22;8261;47.678;-122.174;2022-09-28T10:16:31;13.50;99.90
16305;DHT22;8261;47.678;-122.174;2022-09-28T10:19:03;13.50;99.90
16305;DHT22;8261;47.678;-122.174;2022-09-28T10:21:34;13.50;99.90
16305;DHT22;8261;47.678;-122.174;2022-09-28T10:24:15;13.50;99.90
16305;DHT22;8261;47.678;-122.174;2022-09-28T10:26:49;13.50;99.90
16305;DHT22;8261;47.678;-122.174;2022-09-28T10:29:25;13.50;99.90
16305;DHT22;8261;47.678;-122.174;2022-09-28T10:31:58;13.50;99.90
16305;DHT22;8261;47.678;-122.174;2022-09-28T10:34:31;13.40;99.90
16305;DHT22;8261;47.678;-122.174;2022-09-28T10:37:05;13.40;99.90
16305;DHT22;8261;47.678;-122.174;2022-09-28T10:39:46;13.40;99.90
16305;DHT22;8261;47.678;-122.174;2022-09-28T10:42:20;13.40;99.90
16305;DHT22;8261;47.678;-122.174;2022-09-28T10:44:57;13.40;99.90
16305;DHT22;8261;47.678;-122.174;2022-09-28T10:47:34;13.40;99.90
16305;DHT22;8261;47.678;-122.174;2022-09-28T10:50:19;13.40;99.90
16305;DHT22;8261;47.678;-122.174;2022-09-28T10:52:51;13.50;99.90
16305;DHT22;8261;47.678;-122.174;2022-09-28T10:55:27;13.40;99.90
16305;DHT22;8261;47.678;-122.174;2022-09-28T10:57:59;13.30;99.90
16305;DHT22;8261;47.678;-122.174;2022-09-28T11:00:36;13.30;99.90
16305;DHT22;8261;47.678;-122.174;2022-09-28T11:03:19;13.30;99.90
16305;DHT22;8261;47.678;-122.174;2022-09-28T11:05:56;13.20;99.90
16305;DHT22;8261;47.678;-122.174;2022-09-28T11:08:35;13.20;99.90
16305;DHT22;8261;47.678;-122.174;2022-09-28T11:11:08;13.20;99.90
16305;DHT22;8261;47.678;-122.174;2022-09-28T11:13:45;13.10;99.90
16305;DHT22;8261;47.678;-122.174;2022-09-28T11:16:23;13.10;99.90
16305;DHT22;8261;47.678;-122.174;2022-09-28T11:19:03;13.10;99.90
16305;DHT22;8261;47.678;-122.174;2022-09-28T11:21:41;13.10;99.90
16305;DHT22;8261;47.678;-122.174;2022-09-28T11:24:20;13.00;99.90
16305;DHT22;8261;47.678;-122.174;2022-09-28T11:26:54;13.00;99.90
16305;DHT22;8261;47.678;-122.174;2022-09-28T11:29:33;13.00;99.90
16305;DHT22;8261;47.678;-122.174;2022-09-28T11:32:06;13.00;99.90
16305;DHT22;8261;47.678;-122.174;2022-09-28T11:34:46;13.00;99.90
16305;DHT22;8261;47.678;-122.174;2022-09-28T11:37:58;13.00;99.90
16305;DHT22;8261;47.678;-122.174;2022-09-28T11:40:44;13.00;99.90
16305;DHT22;8261;47.678;-122.174;2022-09-28T11:43:28;13.00;99.90
16305;DHT22;8261;47.678;-122.174;2022-09-28T11:46:07;12.90;99.90
16305;DHT22;8261;47.678;-122.174;2022-09-28T11:48:42;12.90;99.90
16305;DHT22;8261;47.678;-122.174;2022-09-28T11:51:19;12.90;99.90
16305;DHT22;8261;47.678;-122.174;2022-09-28T11:53:55;13.00;99.90
16305;DHT22;8261;47.678;-122.174;2022-09-28T11:56:33;12.90;99.90
16305;DHT22;8261;47.678;-122.174;2022-09-28T11:59:12;13.00;99.90
16305;DHT22;8261;47.678;-122.174;2022-09-28T12:01:48;13.00;99.90
16305;DHT22;8261;47.678;-122.174;2022-09-28T12:04:25;13.00;99.90
16305;DHT22;8261;47.678;-122.174;2022-09-28T12:07:05;13.10;99.90
16305;DHT22;8261;47.678;-122.174;2022-09-28T12:09:44;13.00;99.90
16305;DHT22;8261;47.678;-122.174;2022-09-28T12:12:22;13.00;99.90
16305;DHT22;8261;47.678;-122.174;2022-09-28T12:14:56;13.00;99.90
16305;DHT22;8261;47.678;-122.174;2022-09-28T12:17:35;13.00;99.90
16305;DHT22;8261;47.678;-122.174;2022-09-28T12:20:15;12.90;99.90
16305;DHT22;8261;47.678;-122.174;2022-09-28T12:22:58;12.90;99.90
16305;DHT22;8261;47.678;-122.174;2022-09-28T12:25:38;12.90;99.90
16305;DHT22;8261;47.678;-122.174;2022-09-28T12:28:17;12.80;99.90
16305;DHT22;8261;47.678;-122.174;2022-09-28T12:30:51;12.80;99.90
16305;DHT22;8261;47.678;-122.174;2022-09-28T12:33:23;12.80;99.90
16305;DHT22;8261;47.678;-122.174;2022-09-28T12:36:03;12.80;99.90
16305;DHT22;8261;47.678;-122.174;2022-09-28T12:38:52;12.80;99.90
16305;DHT22;8261;47.678;-122.174;2022-09-28T12:41:58;12.80;99.90
16305;DHT22;8261;47.678;-122.174;2022-09-28T12:44:50;12.70;99.90
16305;DHT22;8261;47.678;-122.174;2022-09-28T12:47:47;12.70;99.90
16305;DHT22;8261;47.678;-122.174;2022-09-28T12:50:25;12.70;99.90
16305;DHT22;8261;47.678;-122.174;2022-09-28T12:53:20;12.70;99.90
16305;DHT22;8261;47.678;-122.174;2022-09-28T12:56:00;12.70;99.90
16305;DHT22;8261;47.678;-122.174;2022-09-28T12:58:42;12.70;99.90
16305;DHT22;8261;47.678;-122.174;2022-09-28T13:01:27;12.70;99.90
16305;DHT22;8261;47.678;-122.174;2022-09-28T13:04:27;12.70;99.90
16305;DHT22;8261;47.678;-122.174;2022-09-28T13:07:06;12.70;99.90
16305;DHT22;8261;47.678;-122.174;2022-09-28T13:09:45;12.60;99.90
16305;DHT22;8261;47.678;-122.174;2022-09-28T13:12:43;12.70;99.90
16305;DHT22;8261;47.678;-122.174;2022-09-28T13:15:40;12.60;99.90
16305;DHT22;8261;47.678;-122.174;2022-09-28T13:18:19;12.70;99.90
16305;DHT22;8261;47.678;-122.174;2022-09-28T13:21:08;12.70;99.90
16305;DHT22;8261;47.678;-122.174;2022-09-28T13:23:56;12.70;99.90
16305;DHT22;8261;47.678;-122.174;2022-09-28T13:26:48;12.70;99.90
16305;DHT22;8261;47.678;-122.174;2022-09-28T13:29:25;12.80;99.90
16305;DHT22;8261;47.678;-122.174;2022-09-28T13:32:00;12.80;99.90
16305;DHT22;8261;47.678;-122.174;2022-09-28T13:34:33;12.80;99.90
16305;DHT22;8261;47.678;-122.174;2022-09-28T13:37:19;12.80;99.90
16305;DHT22;8261;47.678;-122.174;2022-09-28T13:39:52;12.80;99.90
16305;DHT22;8261;47.678;-122.174;2022-09-28T13:45:46;12.90;99.90
16305;DHT22;8261;47.678;-122.174;2022-09-28T13:48:22;13.00;99.90
16305;DHT22;8261;47.678;-122.174;2022-09-28T13:51:13;13.00;99.90
16305;DHT22;8261;47.678;-122.174;2022-09-28T13:54:09;13.10;99.90
16305;DHT22;8261;47.678;-122.174;2022-09-28T13:56:51;13.10;99.90
16305;DHT22;8261;47.678;-122.174;2022-09-28T13:59:25;13.20;99.90
16305;DHT22;8261;47.678;-122.174;2022-09-28T14:02:01;13.30;99.90
16305;DHT22;8261;47.678;-122.174;2022-09-28T14:04:54;13.30;99.90
16305;DHT22;8261;47.678;-122.174;2022-09-28T14:07:57;13.40;99.90
16305;DHT22;8261;47.678;-122.174;2022-09-28T14:10:47;13.40;99.90
16305;DHT22;8261;47.678;-122.174;2022-09-28T14:16:27;13.50;99.90
16305;DHT22;8261;47.678;-122.174;2022-09-28T14:19:06;13.50;99.90
16305;DHT22;8261;47.678;-122.174;2022-09-28T14:21:59;13.60;99.90
16305;DHT22;8261;47.678;-122.174;2022-09-28T14:24:43;13.70;99.90
16305;DHT22;8261;47.678;-122.174;2022-09-28T14:27:50;13.70;99.90
16305;DHT22;8261;47.678;-122.174;2022-09-28T14:30:44;13.80;99.90
16305;DHT22;8261;47.678;-122.174;2022-09-28T14:33:23;13.80;99.90
16305;DHT22;8261;47.678;-122.174;2022-09-28T14:35:58;13.80;99.90
16305;DHT22;8261;47.678;-122.174;2022-09-28T14:38:34;13.80;99.90
16305;DHT22;8261;47.678;-122.174;2022-09-28T14:41:29;13.90;99.90
16305;DHT22;8261;47.678;-122.174;2022-09-28T14:44:05;13.90;99.90
16305;DHT22;8261;47.678;-122.174;2022-09-28T14:46:43;13.80;99.90
16305;DHT22;8261;47.678;-122.174;2022-09-28T14:52:38;13.90;99.90
16305;DHT22;8261;47.678;-122.174;2022-09-28T14:55:16;13.90;99.90
16305;DHT22;8261;47.678;-122.174;2022-09-28T14:57:52;14.00;99.90
16305;DHT22;8261;47.678;-122.174;2022-09-28T15:00:26;14.10;99.90
16305;DHT22;8261;47.678;-122.174;2022-09-28T15:03:02;14.20;99.90
16305;DHT22;8261;47.678;-122.174;2022-09-28T15:05:42;14.20;99.90
16305;DHT22;8261;47.678;-122.174;2022-09-28T15:08:18;14.30;99.90
16305;DHT22;8261;47.678;-122.174;2022-09-28T15:10:51;14.40;99.90
16305;DHT22;8261;47.678;-122.174;2022-09-28T15:13:24;14.40;99.90
16305;DHT22;8261;47.678;-122.174;2022-09-28T15:16:00;14.50;99.90
16305;DHT22;8261;47.678;-122.174;2022-09-28T15:19:01;14.50;99.90
16305;DHT22;8261;47.678;-122.174;2022-09-28T15:21:35;14.50;99.90
16305;DHT22;8261;47.678;-122.174;2022-09-28T15:24:30;14.60;99.90
16305;DHT22;8261;47.678;-122.174;2022-09-28T15:27:02;14.60;99.90
16305;DHT22;8261;47.678;-122.174;2022-09-28T15:29:33;14.70;99.90
16305;DHT22;8261;47.678;-122.174;2022-09-28T15:32:04;14.70;99.90
16305;DHT22;8261;47.678;-122.174;2022-09-28T15:34:37;14.70;99.90
16305;DHT22;8261;47.678;-122.174;2022-09-28T15:37:23;14.70;99.90
16305;DHT22;8261;47.678;-122.174;2022-09-28T15:39:57;14.70;99.90
16305;DHT22;8261;47.678;-122.174;2022-09-28T15:42:34;14.60;99.90
16305;DHT22;8261;47.678;-122.174;2022-09-28T15:45:21;14.60;99.90
16305;DHT22;8261;47.678;-122.174;2022-09-28T15:48:18;14.60;99.90
16305;DHT22;8261;47.678;-122.174;2022-09-28T15:50:58;14.60;99.90
16305;DHT22;8261;47.678;-122.174;2022-09-28T15:53:30;14.70;99.90
16305;DHT22;8261;47.678;-122.174;2022-09-28T15:56:04;14.80;99.90
16305;DHT22;8261;47.678;-122.174;2022-09-28T15:58:38;14.80;99.90
16305;DHT22;8261;47.678;-122.174;2022-09-28T16:01:23;14.80;99.90
16305;DHT22;8261;47.678;-122.174;2022-09-28T16:04:35;14.60;99.90
16305;DHT22;8261;47.678;-122.174;2022-09-28T16:07:24;14.60;99.90
16305;DHT22;8261;47.678;-122.174;2022-09-28T16:09:59;14.70;99.90
16305;DHT22;8261;47.678;-122.174;2022-09-28T16:12:41;14.80;99.90
16305;DHT22;8261;47.678;-122.174;2022-09-28T16:15:18;14.90;99.90
16305;DHT22;8261;47.678;-122.174;2022-09-28T16:17:54;15.00;99.90